sensor_id;sensor_type;location;lat;lon;timestamp;P1;durP1;ratioP1;P2;durP2;ratioP2
11255;SDS011;5685;52.384;13.420;2023-05-25T00:01:45;77.57;;;40.57;;
11255;SDS011;5685;52.384;13.420;2023-05-25T00:04:48;78.00;;;40.63;;
11255;SDS011;5685;52.384;13.420;2023-05-25T00:07:52;77.10;;;40.17;;
11255;SDS011;5685;52.384;13.420;2023-05-25T00:10:55;77.13;;;40.20;;
11255;SDS011;5685;52.384;13.420;2023-05-25T00:13:57;77.77;;;40.43;;
11255;SDS011;5685;52.384;13.420;2023-05-25T00:16:59;77.83;;;40.50;;
11255;SDS011;5685;52.384;13.420;2023-05-25T00:20:03;77.70;;;40.37;;
11255;SDS011;5685;52.384;13.420;2023-05-25T00:23:07;78.40;;;40.70;;
11255;SDS011;5685;52.384;13.420;2023-05-25T00:26:10;78.00;;;40.50;;
11255;SDS011;5685;52.384;13.420;2023-05-25T00:29:12;78.17;;;40.40;;
11255;SDS011;5685;52.384;13.420;2023-05-25T00:32:15;77.40;;;40.10;;
11255;SDS011;5685;52.384;13.420;2023-05-25T00:35:17;77.13;;;39.90;;
11255;SDS011;5685;52.384;13.420;2023-05-25T00:38:21;77.87;;;40.33;;
11255;SDS011;5685;52.384;13.420;2023-05-25T00:41:23;78.07;;;40.37;;
11255;SDS011;5685;52.384;13.420;2023-05-25T00:44:27;77.43;;;40.03;;
11255;SDS011;5685;52.384;13.420;2023-05-25T00:47:31;77.90;;;40.23;;
11255;SDS011;5685;52.384;13.420;2023-05-25T00:50:35;77.57;;;40.20;;
11255;SDS011;5685;52.384;13.420;2023-05-25T00:53:39;77.50;;;40.03;;
11255;SDS011;5685;52.384;13.420;2023-05-25T00:56:43;77.03;;;39.80;;
11255;SDS011;5685;52.384;13.420;2023-05-25T00:59:48;77.77;;;40.30;;
11255;SDS011;5685;52.384;13.420;2023-05-25T01:02:51;77.30;;;40.00;;
11255;SDS011;5685;52.384;13.420;2023-05-25T01:05:55;77.70;;;40.20;;
11255;SDS011;5685;52.384;13.420;2023-05-25T01:09:00;77.27;;;40.03;;
11255;SDS011;5685;52.384;13.420;2023-05-25T01:12:04;77.77;;;40.20;;
11255;SDS011;5685;52.384;13.420;2023-05-25T01:15:06;76.67;;;39.67;;
11255;SDS011;5685;52.384;13.420;2023-05-25T01:18:10;77.43;;;40.00;;
11255;SDS011;5685;52.384;13.420;2023-05-25T01:21:16;77.33;;;39.90;;
11255;SDS011;5685;52.384;13.420;2023-05-25T01:24:21;77.63;;;40.23;;
11255;SDS011;5685;52.384;13.420;2023-05-25T01:27:28;77.90;;;40.27;;
11255;SDS011;5685;52.384;13.420;2023-05-25T01:30:32;77.57;;;40.10;;
11255;SDS011;5685;52.384;13.420;2023-05-25T01:33:36;77.03;;;39.90;;
11255;SDS011;5685;52.384;13.420;2023-05-25T01:36:40;78.20;;;40.53;;
11255;SDS011;5685;52.384;13.420;2023-05-25T01:39:43;77.23;;;39.87;;
11255;SDS011;5685;52.384;13.420;2023-05-25T01:42:45;78.00;;;40.23;;
11255;SDS011;5685;52.384;13.420;2023-05-25T01:45:47;77.97;;;40.13;;
11255;SDS011;5685;52.384;13.420;2023-05-25T01:48:51;77.87;;;40.27;;
11255;SDS011;5685;52.384;13.420;2023-05-25T01:51:59;77.87;;;40.17;;
11255;SDS011;5685;52.384;13.420;2023-05-25T01:55:04;77.57;;;40.13;;
11255;SDS011;5685;52.384;13.420;2023-05-25T01:58:07;77.47;;;40.13;;
11255;SDS011;5685;52.384;13.420;2023-05-25T02:01:11;76.80;;;39.80;;
11255;SDS011;5685;52.384;13.420;2023-05-25T02:04:15;77.70;;;40.30;;
11255;SDS011;5685;52.384;13.420;2023-05-25T02:07:19;77.40;;;40.10;;
11255;SDS011;5685;52.384;13.420;2023-05-25T02:10:22;78.40;;;40.10;;
11255;SDS011;5685;52.384;13.420;2023-05-25T02:13:24;78.03;;;40.30;;
11255;SDS011;5685;52.384;13.420;2023-05-25T02:16:26;77.63;;;40.07;;
11255;SDS011;5685;52.384;13.420;2023-05-25T02:19:29;78.20;;;40.33;;
11255;SDS011;5685;52.384;13.420;2023-05-25T02:22:33;78.47;;;40.80;;
11255;SDS011;5685;52.384;13.420;2023-05-25T02:25:36;77.63;;;40.03;;
11255;SDS011;5685;52.384;13.420;2023-05-25T02:28:39;77.30;;;39.73;;
11255;SDS011;5685;52.384;13.420;2023-05-25T02:31:41;77.43;;;39.80;;
11255;SDS011;5685;52.384;13.420;2023-05-25T02:34:43;77.47;;;39.80;;
11255;SDS011;5685;52.384;13.420;2023-05-25T02:37:48;77.77;;;39.97;;
11255;SDS011;5685;52.384;13.420;2023-05-25T02:40:50;77.60;;;39.93;;
11255;SDS011;5685;52.384;13.420;2023-05-25T02:43:53;77.53;;;39.70;;
11255;SDS011;5685;52.384;13.420;2023-05-25T02:46:55;77.73;;;39.83;;
11255;SDS011;5685;52.384;13.420;2023-05-25T02:49:57;78.20;;;40.00;;
11255;SDS011;5685;52.384;13.420;2023-05-25T02:53:01;78.27;;;40.10;;
11255;SDS011;5685;52.384;13.420;2023-05-25T02:56:04;78.13;;;40.00;;
11255;SDS011;5685;52.384;13.420;2023-05-25T02:59:09;78.37;;;39.97;;
11255;SDS011;5685;52.384;13.420;2023-05-25T03:02:11;78.40;;;40.03;;
11255;SDS011;5685;52.384;13.420;2023-05-25T03:05:13;78.13;;;39.90;;
11255;SDS011;5685;52.384;13.420;2023-05-25T03:08:18;78.33;;;40.00;;
11255;SDS011;5685;52.384;13.420;2023-05-25T03:11:20;78.47;;;40.10;;
11255;SDS011;5685;52.384;13.420;2023-05-25T03:14:22;78.40;;;40.07;;
11255;SDS011;5685;52.384;13.420;2023-05-25T03:17:24;78.60;;;40.07;;
11255;SDS011;5685;52.384;13.420;2023-05-25T03:20:27;78.70;;;40.13;;
11255;SDS011;5685;52.384;13.420;2023-05-25T03:23:31;77.80;;;39.70;;
11255;SDS011;5685;52.384;13.420;2023-05-25T03:26:33;78.43;;;40.13;;
11255;SDS011;5685;52.384;13.420;2023-05-25T03:29:35;78.47;;;40.03;;
11255;SDS011;5685;52.384;13.420;2023-05-25T03:32:38;78.37;;;40.00;;
11255;SDS011;5685;52.384;13.420;2023-05-25T03:35:40;78.07;;;39.97;;
11255;SDS011;5685;52.384;13.420;2023-05-25T03:38:44;78.07;;;39.83;;
11255;SDS011;5685;52.384;13.420;2023-05-25T03:41:47;78.73;;;40.17;;
11255;SDS011;5685;52.384;13.420;2023-05-25T03:44:50;79.03;;;40.30;;
11255;SDS011;5685;52.384;13.420;2023-05-25T03:47:52;78.50;;;40.03;;
11255;SDS011;5685;52.384;13.420;2023-05-25T03:50:54;78.90;;;40.17;;
11255;SDS011;5685;52.384;13.420;2023-05-25T03:53:58;78.50;;;40.00;;
11255;SDS011;5685;52.384;13.420;2023-05-25T03:57:00;78.07;;;39.90;;
11255;SDS011;5685;52.384;13.420;2023-05-25T04:00:03;78.13;;;39.77;;
11255;SDS011;5685;52.384;13.420;2023-05-25T04:03:07;78.73;;;39.93;;
11255;SDS011;5685;52.384;13.420;2023-05-25T04:06:09;78.53;;;39.97;;
11255;SDS011;5685;52.384;13.420;2023-05-25T04:09:13;78.27;;;39.70;;
11255;SDS011;5685;52.384;13.420;2023-05-25T04:12:15;78.93;;;40.50;;
11255;SDS011;5685;52.384;13.420;2023-05-25T04:15:18;79.23;;;40.73;;
11255;SDS011;5685;52.384;13.420;2023-05-25T04:18:20;79.27;;;40.77;;
11255;SDS011;5685;52.384;13.420;2023-05-25T04:21:22;78.33;;;39.87;;
11255;SDS011;5685;52.384;13.420;2023-05-25T04:24:27;78.23;;;39.67;;
11255;SDS011;5685;52.384;13.420;2023-05-25T04:27:29;78.40;;;39.90;;
11255;SDS011;5685;52.384;13.420;2023-05-25T04:30:32;78.80;;;40.00;;
11255;SDS011;5685;52.384;13.420;2023-05-25T04:33:35;78.77;;;39.97;;
11255;SDS011;5685;52.384;13.420;2023-05-25T04:36:38;78.90;;;40.10;;
11255;SDS011;5685;52.384;13.420;2023-05-25T04:39:43;78.03;;;39.60;;
11255;SDS011;5685;52.384;13.420;2023-05-25T04:42:45;78.33;;;39.83;;
11255;SDS011;5685;52.384;13.420;2023-05-25T04:45:48;77.93;;;39.63;;
11255;SDS011;5685;52.384;13.420;2023-05-25T04:48:50;78.23;;;39.70;;
11255;SDS011;5685;52.384;13.420;2023-05-25T04:51:52;78.13;;;39.70;;
11255;SDS011;5685;52.384;13.420;2023-05-25T04:54:56;77.93;;;39.57;;
11255;SDS011;5685;52.384;13.420;2023-05-25T04:57:59;78.03;;;39.87;;
11255;SDS011;5685;52.384;13.420;2023-05-25T05:01:02;77.33;;;39.33;;
11255;SDS011;5685;52.384;13.420;2023-05-25T05:04:04;78.60;;;39.93;;
11255;SDS011;5685;52.384;13.420;2023-05-25T05:07:07;78.07;;;39.63;;
11255;SDS011;5685;52.384;13.420;2023-05-25T05:10:10;78.13;;;39.80;;
11255;SDS011;5685;52.384;13.420;2023-05-25T05:13:13;78.80;;;40.00;;
11255;SDS011;5685;52.384;13.420;2023-05-25T05:16:16;78.20;;;39.77;;
11255;SDS011;5685;52.384;13.420;2023-05-25T05:19:18;77.73;;;39.53;;
11255;SDS011;5685;52.384;13.420;2023-05-25T05:22:21;77.80;;;39.70;;
11255;SDS011;5685;52.384;13.420;2023-05-25T05:25:25;77.93;;;39.63;;
11255;SDS011;5685;52.384;13.420;2023-05-25T05:28:28;78.17;;;39.77;;
11255;SDS011;5685;52.384;13.420;2023-05-25T05:31:30;78.10;;;39.73;;
11255;SDS011;5685;52.384;13.420;2023-05-25T05:34:33;78.20;;;39.70;;
11255;SDS011;5685;52.384;13.420;2023-05-25T05:37:36;78.30;;;39.80;;
11255;SDS011;5685;52.384;13.420;2023-05-25T05:40:40;78.20;;;39.83;;
11255;SDS011;5685;52.384;13.420;2023-05-25T05:43:42;78.37;;;39.77;;
11255;SDS011;5685;52.384;13.420;2023-05-25T05:46:45;78.03;;;39.60;;
11255;SDS011;5685;52.384;13.420;2023-05-25T05:49:47;77.60;;;39.37;;
11255;SDS011;5685;52.384;13.420;2023-05-25T05:52:50;78.60;;;40.00;;
11255;SDS011;5685;52.384;13.420;2023-05-25T05:55:54;78.40;;;39.90;;
11255;SDS011;5685;52.384;13.420;2023-05-25T05:58:58;77.50;;;39.43;;
11255;SDS011;5685;52.384;13.420;2023-05-25T06:02:00;78.13;;;39.73;;
11255;SDS011;5685;52.384;13.420;2023-05-25T06:05:03;78.37;;;39.83;;
11255;SDS011;5685;52.384;13.420;2023-05-25T06:08:06;76.87;;;39.07;;
11255;SDS011;5685;52.384;13.420;2023-05-25T06:11:10;77.63;;;39.47;;
11255;SDS011;5685;52.384;13.420;2023-05-25T06:14:13;77.63;;;39.60;;
11255;SDS011;5685;52.384;13.420;2023-05-25T06:17:15;78.20;;;39.70;;
11255;SDS011;5685;52.384;13.420;2023-05-25T06:20:17;77.57;;;39.37;;
11255;SDS011;5685;52.384;13.420;2023-05-25T06:23:20;77.80;;;39.47;;
11255;SDS011;5685;52.384;13.420;2023-05-25T06:26:23;77.67;;;39.37;;
11255;SDS011;5685;52.384;13.420;2023-05-25T06:29:26;78.23;;;39.70;;
11255;SDS011;5685;52.384;13.420;2023-05-25T06:32:28;77.53;;;39.30;;
11255;SDS011;5685;52.384;13.420;2023-05-25T06:35:30;77.63;;;39.33;;
11255;SDS011;5685;52.384;13.420;2023-05-25T06:38:33;77.37;;;39.20;;
11255;SDS011;5685;52.384;13.420;2023-05-25T06:41:37;78.03;;;39.60;;
11255;SDS011;5685;52.384;13.420;2023-05-25T06:44:39;77.83;;;39.50;;
11255;SDS011;5685;52.384;13.420;2023-05-25T06:47:42;78.20;;;39.70;;
11255;SDS011;5685;52.384;13.420;2023-05-25T06:50:44;78.00;;;39.53;;
11255;SDS011;5685;52.384;13.420;2023-05-25T06:53:46;78.43;;;39.87;;
11255;SDS011;5685;52.384;13.420;2023-05-25T06:56:50;77.90;;;39.50;;
11255;SDS011;5685;52.384;13.420;2023-05-25T06:59:53;78.00;;;39.50;;
11255;SDS011;5685;52.384;13.420;2023-05-25T07:02:55;77.70;;;39.47;;
11255;SDS011;5685;52.384;13.420;2023-05-25T07:05:57;77.73;;;39.43;;
11255;SDS011;5685;52.384;13.420;2023-05-25T07:08:59;77.80;;;39.60;;
11255;SDS011;5685;52.384;13.420;2023-05-25T07:12:04;77.70;;;39.50;;
11255;SDS011;5685;52.384;13.420;2023-05-25T07:15:08;77.60;;;39.37;;
11255;SDS011;5685;52.384;13.420;2023-05-25T07:18:12;77.70;;;39.47;;
11255;SDS011;5685;52.384;13.420;2023-05-25T07:21:14;77.77;;;39.53;;
11255;SDS011;5685;52.384;13.420;2023-05-25T07:24:16;77.90;;;39.47;;
11255;SDS011;5685;52.384;13.420;2023-05-25T07:27:20;77.33;;;39.37;;
11255;SDS011;5685;52.384;13.420;2023-05-25T07:30:24;77.97;;;39.77;;
11255;SDS011;5685;52.384;13.420;2023-05-25T07:33:26;76.90;;;39.27;;
11255;SDS011;5685;52.384;13.420;2023-05-25T07:36:29;76.67;;;39.03;;
11255;SDS011;5685;52.384;13.420;2023-05-25T07:39:31;77.93;;;39.63;;
11255;SDS011;5685;52.384;13.420;2023-05-25T07:42:35;77.80;;;39.63;;
11255;SDS011;5685;52.384;13.420;2023-05-25T07:45:37;76.53;;;38.90;;
11255;SDS011;5685;52.384;13.420;2023-05-25T07:48:40;77.67;;;39.40;;
11255;SDS011;5685;52.384;13.420;2023-05-25T07:51:42;77.97;;;39.67;;
11255;SDS011;5685;52.384;13.420;2023-05-25T07:54:45;77.77;;;39.43;;
11255;SDS011;5685;52.384;13.420;2023-05-25T07:57:48;77.80;;;39.53;;
11255;SDS011;5685;52.384;13.420;2023-05-25T08:00:51;78.30;;;39.80;;
11255;SDS011;5685;52.384;13.420;2023-05-25T08:03:53;77.80;;;39.60;;
11255;SDS011;5685;52.384;13.420;2023-05-25T08:06:55;77.80;;;39.53;;
11255;SDS011;5685;52.384;13.420;2023-05-25T08:09:58;77.23;;;39.13;;
11255;SDS011;5685;52.384;13.420;2023-05-25T08:13:01;77.93;;;39.40;;
11255;SDS011;5685;52.384;13.420;2023-05-25T08:16:04;77.53;;;39.20;;
11255;SDS011;5685;52.384;13.420;2023-05-25T08:19:07;78.20;;;39.63;;
11255;SDS011;5685;52.384;13.420;2023-05-25T08:22:10;78.20;;;39.60;;
11255;SDS011;5685;52.384;13.420;2023-05-25T08:25:12;78.40;;;39.53;;
11255;SDS011;5685;52.384;13.420;2023-05-25T08:28:16;78.17;;;39.50;;
11255;SDS011;5685;52.384;13.420;2023-05-25T08:31:18;78.23;;;39.47;;
11255;SDS011;5685;52.384;13.420;2023-05-25T08:34:20;78.70;;;39.67;;
11255;SDS011;5685;52.384;13.420;2023-05-25T08:37:22;78.37;;;39.43;;
11255;SDS011;5685;52.384;13.420;2023-05-25T08:40:25;78.73;;;39.67;;
11255;SDS011;5685;52.384;13.420;2023-05-25T08:43:30;78.20;;;39.47;;
11255;SDS011;5685;52.384;13.420;2023-05-25T08:46:33;77.80;;;39.30;;
11255;SDS011;5685;52.384;13.420;2023-05-25T08:49:36;78.23;;;39.50;;
11255;SDS011;5685;52.384;13.420;2023-05-25T08:52:38;77.70;;;39.30;;
11255;SDS011;5685;52.384;13.420;2023-05-25T08:55:41;77.73;;;39.23;;
11255;SDS011;5685;52.384;13.420;2023-05-25T08:58:47;77.93;;;39.53;;
11255;SDS011;5685;52.384;13.420;2023-05-25T09:01:53;78.17;;;39.53;;
11255;SDS011;5685;52.384;13.420;2023-05-25T09:04:57;78.33;;;39.60;;
11255;SDS011;5685;52.384;13.420;2023-05-25T09:08:01;78.40;;;39.57;;
11255;SDS011;5685;52.384;13.420;2023-05-25T09:11:03;78.27;;;39.43;;
11255;SDS011;5685;52.384;13.420;2023-05-25T09:14:07;78.70;;;39.67;;
11255;SDS011;5685;52.384;13.420;2023-05-25T09:17:10;78.40;;;39.67;;
11255;SDS011;5685;52.384;13.420;2023-05-25T09:20:13;77.97;;;39.33;;
11255;SDS011;5685;52.384;13.420;2023-05-25T09:23:16;78.63;;;39.67;;
11255;SDS011;5685;52.384;13.420;2023-05-25T09:26:18;78.77;;;39.70;;
11255;SDS011;5685;52.384;13.420;2023-05-25T09:29:22;78.73;;;39.57;;
11255;SDS011;5685;52.384;13.420;2023-05-25T09:32:24;78.50;;;39.50;;
11255;SDS011;5685;52.384;13.420;2023-05-25T09:35:27;78.67;;;39.67;;
11255;SDS011;5685;52.384;13.420;2023-05-25T09:38:29;78.90;;;39.70;;
11255;SDS011;5685;52.384;13.420;2023-05-25T09:45:12;78.80;;;39.67;;
11255;SDS011;5685;52.384;13.420;2023-05-25T09:48:14;78.67;;;39.60;;
11255;SDS011;5685;52.384;13.420;2023-05-25T09:51:16;78.80;;;39.63;;
11255;SDS011;5685;52.384;13.420;2023-05-25T09:54:20;79.30;;;39.93;;
11255;SDS011;5685;52.384;13.420;2023-05-25T09:57:23;78.00;;;39.43;;
11255;SDS011;5685;52.384;13.420;2023-05-25T10:00:27;78.10;;;39.40;;
11255;SDS011;5685;52.384;13.420;2023-05-25T10:03:29;78.50;;;39.50;;
11255;SDS011;5685;52.384;13.420;2023-05-25T10:06:32;78.10;;;39.37;;
11255;SDS011;5685;52.384;13.420;2023-05-25T10:09:37;79.10;;;40.00;;
11255;SDS011;5685;52.384;13.420;2023-05-25T10:12:40;78.60;;;39.60;;
11255;SDS011;5685;52.384;13.420;2023-05-25T10:15:44;78.60;;;39.50;;
11255;SDS011;5685;52.384;13.420;2023-05-25T10:18:47;78.63;;;39.60;;
11255;SDS011;5685;52.384;13.420;2023-05-25T10:21:54;78.70;;;39.50;;
11255;SDS011;5685;52.384;13.420;2023-05-25T10:24:58;78.87;;;39.77;;
11255;SDS011;5685;52.384;13.420;2023-05-25T10:28:06;79.00;;;39.90;;
11255;SDS011;5685;52.384;13.420;2023-05-25T10:31:10;78.80;;;39.77;;
11255;SDS011;5685;52.384;13.420;2023-05-25T10:34:13;78.87;;;39.80;;
11255;SDS011;5685;52.384;13.420;2023-05-25T10:37:16;79.43;;;40.10;;
11255;SDS011;5685;52.384;13.420;2023-05-25T10:40:20;78.70;;;39.63;;
11255;SDS011;5685;52.384;13.420;2023-05-25T10:43:23;78.43;;;39.50;;
11255;SDS011;5685;52.384;13.420;2023-05-25T10:46:27;78.90;;;39.70;;
11255;SDS011;5685;52.384;13.420;2023-05-25T10:49:30;79.10;;;39.90;;
11255;SDS011;5685;52.384;13.420;2023-05-25T10:52:34;78.67;;;39.67;;
11255;SDS011;5685;52.384;13.420;2023-05-25T10:55:42;79.57;;;40.10;;
11255;SDS011;5685;52.384;13.420;2023-05-25T10:58:45;78.20;;;39.37;;
11255;SDS011;5685;52.384;13.420;2023-05-25T11:01:52;78.33;;;39.50;;
11255;SDS011;5685;52.384;13.420;2023-05-25T11:08:14;78.53;;;39.73;;
11255;SDS011;5685;52.384;13.420;2023-05-25T11:11:18;78.90;;;39.87;;
11255;SDS011;5685;52.384;13.420;2023-05-25T11:14:21;79.00;;;39.97;;
11255;SDS011;5685;52.384;13.420;2023-05-25T11:17:27;78.03;;;39.57;;
11255;SDS011;5685;52.384;13.420;2023-05-25T11:20:32;78.70;;;39.87;;
11255;SDS011;5685;52.384;13.420;2023-05-25T11:23:34;78.20;;;39.57;;
11255;SDS011;5685;52.384;13.420;2023-05-25T11:26:55;78.07;;;39.60;;
11255;SDS011;5685;52.384;13.420;2023-05-25T11:29:58;77.90;;;39.50;;
11255;SDS011;5685;52.384;13.420;2023-05-25T11:33:03;78.10;;;39.67;;
11255;SDS011;5685;52.384;13.420;2023-05-25T11:36:06;78.17;;;39.70;;
11255;SDS011;5685;52.384;13.420;2023-05-25T11:39:09;78.27;;;39.73;;
11255;SDS011;5685;52.384;13.420;2023-05-25T11:42:11;78.13;;;39.80;;
11255;SDS011;5685;52.384;13.420;2023-05-25T11:45:13;77.40;;;39.37;;
11255;SDS011;5685;52.384;13.420;2023-05-25T11:48:17;77.80;;;39.80;;
11255;SDS011;5685;52.384;13.420;2023-05-25T11:51:20;77.10;;;39.50;;
11255;SDS011;5685;52.384;13.420;2023-05-25T11:54:23;77.23;;;39.60;;
11255;SDS011;5685;52.384;13.420;2023-05-25T11:57:25;77.40;;;39.70;;
11255;SDS011;5685;52.384;13.420;2023-05-25T12:00:28;76.70;;;39.30;;
11255;SDS011;5685;52.384;13.420;2023-05-25T12:03:32;77.47;;;39.70;;
11255;SDS011;5685;52.384;13.420;2023-05-25T12:06:34;77.10;;;39.53;;
11255;SDS011;5685;52.384;13.420;2023-05-25T12:09:36;77.57;;;39.80;;
11255;SDS011;5685;52.384;13.420;2023-05-25T12:12:39;77.70;;;39.83;;
11255;SDS011;5685;52.384;13.420;2023-05-25T12:15:41;77.47;;;39.73;;
11255;SDS011;5685;52.384;13.420;2023-05-25T12:18:46;77.60;;;39.90;;
11255;SDS011;5685;52.384;13.420;2023-05-25T12:21:48;77.60;;;39.83;;
11255;SDS011;5685;52.384;13.420;2023-05-25T12:24:51;78.27;;;40.13;;
11255;SDS011;5685;52.384;13.420;2023-05-25T12:28:08;77.33;;;39.63;;
11255;SDS011;5685;52.384;13.420;2023-05-25T12:31:20;77.40;;;39.77;;
11255;SDS011;5685;52.384;13.420;2023-05-25T12:34:25;77.17;;;39.63;;
11255;SDS011;5685;52.384;13.420;2023-05-25T12:37:28;77.77;;;39.90;;
11255;SDS011;5685;52.384;13.420;2023-05-25T12:40:30;77.07;;;39.60;;
11255;SDS011;5685;52.384;13.420;2023-05-25T12:43:36;77.20;;;39.63;;
11255;SDS011;5685;52.384;13.420;2023-05-25T12:46:39;77.87;;;40.00;;
11255;SDS011;5685;52.384;13.420;2023-05-25T12:49:43;77.77;;;39.90;;
11255;SDS011;5685;52.384;13.420;2023-05-25T12:52:46;77.77;;;40.00;;
11255;SDS011;5685;52.384;13.420;2023-05-25T12:55:49;77.57;;;40.03;;
11255;SDS011;5685;52.384;13.420;2023-05-25T12:58:51;77.47;;;39.83;;
11255;SDS011;5685;52.384;13.420;2023-05-25T13:01:53;77.67;;;39.93;;
11255;SDS011;5685;52.384;13.420;2023-05-25T13:04:57;76.93;;;39.60;;
11255;SDS011;5685;52.384;13.420;2023-05-25T13:08:00;77.33;;;39.73;;
11255;SDS011;5685;52.384;13.420;2023-05-25T13:11:02;78.07;;;40.27;;
11255;SDS011;5685;52.384;13.420;2023-05-25T13:14:05;78.13;;;40.20;;
11255;SDS011;5685;52.384;13.420;2023-05-25T13:17:08;78.07;;;40.20;;
11255;SDS011;5685;52.384;13.420;2023-05-25T13:20:14;77.67;;;39.87;;
11255;SDS011;5685;52.384;13.420;2023-05-25T13:23:17;78.17;;;40.10;;
11255;SDS011;5685;52.384;13.420;2023-05-25T13:26:19;78.17;;;40.10;;
11255;SDS011;5685;52.384;13.420;2023-05-25T13:29:21;78.47;;;40.30;;
11255;SDS011;5685;52.384;13.420;2023-05-25T13:32:24;77.97;;;40.10;;
11255;SDS011;5685;52.384;13.420;2023-05-25T13:35:31;78.20;;;40.20;;
11255;SDS011;5685;52.384;13.420;2023-05-25T13:38:56;78.23;;;40.13;;
11255;SDS011;5685;52.384;13.420;2023-05-25T13:41:59;78.40;;;40.13;;
11255;SDS011;5685;52.384;13.420;2023-05-25T13:45:01;78.83;;;40.50;;
11255;SDS011;5685;52.384;13.420;2023-05-25T13:48:04;78.37;;;40.17;;
11255;SDS011;5685;52.384;13.420;2023-05-25T13:51:08;77.97;;;40.10;;
11255;SDS011;5685;52.384;13.420;2023-05-25T13:54:10;78.57;;;40.40;;
11255;SDS011;5685;52.384;13.420;2023-05-25T13:57:12;78.60;;;40.33;;
11255;SDS011;5685;52.384;13.420;2023-05-25T14:00:15;78.47;;;40.27;;
11255;SDS011;5685;52.384;13.420;2023-05-25T14:03:17;78.57;;;40.40;;
11255;SDS011;5685;52.384;13.420;2023-05-25T14:06:21;78.13;;;40.17;;
11255;SDS011;5685;52.384;13.420;2023-05-25T14:09:24;78.60;;;40.50;;
11255;SDS011;5685;52.384;13.420;2023-05-25T14:12:26;78.40;;;40.37;;
11255;SDS011;5685;52.384;13.420;2023-05-25T14:15:28;77.80;;;40.10;;
11255;SDS011;5685;52.384;13.420;2023-05-25T14:18:31;77.90;;;40.30;;
11255;SDS011;5685;52.384;13.420;2023-05-25T14:21:34;78.60;;;40.50;;
11255;SDS011;5685;52.384;13.420;2023-05-25T14:24:37;78.00;;;40.40;;
11255;SDS011;5685;52.384;13.420;2023-05-25T14:27:39;77.83;;;40.27;;
11255;SDS011;5685;52.384;13.420;2023-05-25T14:30:41;78.17;;;40.53;;
11255;SDS011;5685;52.384;13.420;2023-05-25T14:33:43;77.97;;;40.27;;
11255;SDS011;5685;52.384;13.420;2023-05-25T14:36:47;76.80;;;39.80;;
11255;SDS011;5685;52.384;13.420;2023-05-25T14:39:50;77.30;;;40.07;;
11255;SDS011;5685;52.384;13.420;2023-05-25T14:42:52;77.90;;;40.23;;
11255;SDS011;5685;52.384;13.420;2023-05-25T14:45:55;77.27;;;40.00;;
11255;SDS011;5685;52.384;13.420;2023-05-25T14:48:57;77.67;;;40.23;;
11255;SDS011;5685;52.384;13.420;2023-05-25T14:52:01;77.47;;;40.17;;
11255;SDS011;5685;52.384;13.420;2023-05-25T14:55:04;78.07;;;40.50;;
11255;SDS011;5685;52.384;13.420;2023-05-25T14:58:06;77.93;;;40.43;;
11255;SDS011;5685;52.384;13.420;2023-05-25T15:01:09;76.97;;;39.93;;
11255;SDS011;5685;52.384;13.420;2023-05-25T15:04:11;76.93;;;40.00;;
11255;SDS011;5685;52.384;13.420;2023-05-25T15:07:15;76.37;;;39.77;;
11255;SDS011;5685;52.384;13.420;2023-05-25T15:10:17;77.10;;;40.27;;
11255;SDS011;5685;52.384;13.420;2023-05-25T15:13:19;77.47;;;40.53;;
11255;SDS011;5685;52.384;13.420;2023-05-25T15:16:22;76.87;;;40.30;;
11255;SDS011;5685;52.384;13.420;2023-05-25T15:19:24;76.67;;;40.17;;
11255;SDS011;5685;52.384;13.420;2023-05-25T15:22:28;77.23;;;40.50;;
11255;SDS011;5685;52.384;13.420;2023-05-25T15:25:30;77.00;;;40.50;;
11255;SDS011;5685;52.384;13.420;2023-05-25T15:28:32;76.43;;;40.17;;
11255;SDS011;5685;52.384;13.420;2023-05-25T15:31:35;76.73;;;40.30;;
11255;SDS011;5685;52.384;13.420;2023-05-25T15:34:37;76.70;;;40.27;;
11255;SDS011;5685;52.384;13.420;2023-05-25T15:37:41;76.53;;;40.23;;
11255;SDS011;5685;52.384;13.420;2023-05-25T15:40:43;77.20;;;40.60;;
11255;SDS011;5685;52.384;13.420;2023-05-25T15:43:48;76.60;;;40.20;;
11255;SDS011;5685;52.384;13.420;2023-05-25T15:46:51;76.80;;;40.43;;
11255;SDS011;5685;52.384;13.420;2023-05-25T15:49:54;76.70;;;40.30;;
11255;SDS011;5685;52.384;13.420;2023-05-25T15:52:57;77.07;;;40.63;;
11255;SDS011;5685;52.384;13.420;2023-05-25T15:56:00;76.93;;;40.53;;
11255;SDS011;5685;52.384;13.420;2023-05-25T15:59:02;76.90;;;40.50;;
11255;SDS011;5685;52.384;13.420;2023-05-25T16:02:05;76.70;;;40.43;;
11255;SDS011;5685;52.384;13.420;2023-05-25T16:05:07;76.87;;;40.60;;
11255;SDS011;5685;52.384;13.420;2023-05-25T16:08:11;77.53;;;40.90;;
11255;SDS011;5685;52.384;13.420;2023-05-25T16:11:14;76.87;;;40.60;;
11255;SDS011;5685;52.384;13.420;2023-05-25T16:14:16;76.70;;;40.53;;
11255;SDS011;5685;52.384;13.420;2023-05-25T16:17:18;76.80;;;40.37;;
11255;SDS011;5685;52.384;13.420;2023-05-25T16:20:21;77.37;;;40.80;;
11255;SDS011;5685;52.384;13.420;2023-05-25T16:23:24;77.20;;;40.57;;
11255;SDS011;5685;52.384;13.420;2023-05-25T16:26:27;76.77;;;40.37;;
11255;SDS011;5685;52.384;13.420;2023-05-25T16:29:29;77.97;;;40.87;;
11255;SDS011;5685;52.384;13.420;2023-05-25T16:32:31;77.57;;;40.70;;
11255;SDS011;5685;52.384;13.420;2023-05-25T16:35:33;77.20;;;40.50;;
11255;SDS011;5685;52.384;13.420;2023-05-25T16:38:37;77.67;;;40.77;;
11255;SDS011;5685;52.384;13.420;2023-05-25T16:41:40;78.00;;;40.80;;
11255;SDS011;5685;52.384;13.420;2023-05-25T16:44:42;76.57;;;40.17;;
11255;SDS011;5685;52.384;13.420;2023-05-25T16:47:45;77.80;;;40.60;;
11255;SDS011;5685;52.384;13.420;2023-05-25T16:50:48;77.53;;;40.57;;
11255;SDS011;5685;52.384;13.420;2023-05-25T16:53:52;77.70;;;40.57;;
11255;SDS011;5685;52.384;13.420;2023-05-25T16:56:55;77.70;;;40.53;;
11255;SDS011;5685;52.384;13.420;2023-05-25T16:59:57;77.10;;;40.27;;
11255;SDS011;5685;52.384;13.420;2023-05-25T17:02:59;77.07;;;40.37;;
11255;SDS011;5685;52.384;13.420;2023-05-25T17:06:01;77.07;;;40.30;;
11255;SDS011;5685;52.384;13.420;2023-05-25T17:09:05;77.60;;;40.50;;
11255;SDS011;5685;52.384;13.420;2023-05-25T17:12:10;77.77;;;40.63;;
11255;SDS011;5685;52.384;13.420;2023-05-25T17:15:13;77.17;;;40.40;;
11255;SDS011;5685;52.384;13.420;2023-05-25T17:18:15;77.50;;;40.43;;
11255;SDS011;5685;52.384;13.420;2023-05-25T17:21:18;77.23;;;40.27;;
11255;SDS011;5685;52.384;13.420;2023-05-25T17:24:21;78.23;;;40.70;;
11255;SDS011;5685;52.384;13.420;2023-05-25T17:27:24;77.87;;;40.50;;
11255;SDS011;5685;52.384;13.420;2023-05-25T17:30:26;77.83;;;40.63;;
11255;SDS011;5685;52.384;13.420;2023-05-25T17:33:28;77.50;;;40.43;;
11255;SDS011;5685;52.384;13.420;2023-05-25T17:36:30;77.80;;;40.60;;
11255;SDS011;5685;52.384;13.420;2023-05-25T17:39:34;77.80;;;40.50;;
11255;SDS011;5685;52.384;13.420;2023-05-25T17:42:36;77.37;;;40.37;;
11255;SDS011;5685;52.384;13.420;2023-05-25T17:45:39;78.00;;;40.60;;
11255;SDS011;5685;52.384;13.420;2023-05-25T17:48:41;77.77;;;40.30;;
11255;SDS011;5685;52.384;13.420;2023-05-25T17:51:44;77.80;;;40.37;;
11255;SDS011;5685;52.384;13.420;2023-05-25T17:54:48;77.43;;;40.33;;
11255;SDS011;5685;52.384;13.420;2023-05-25T17:57:50;77.90;;;40.53;;